createdAt,value
2019-06-07T00:02:02.835Z,100806.15
2019-06-07T00:04:35.403Z,100808.95
2019-06-07T00:07:09.035Z,100804.95
2019-06-07T00:09:41.898Z,100812.81
2019-06-07T00:12:16.952Z,100814.36
2019-06-07T00:14:48.924Z,100809.52
2019-06-07T00:17:21.462Z,100811.34
2019-06-07T00:19:53.985Z,100809.20
2019-06-07T00:22:32.795Z,100813.61
2019-06-07T00:25:00.710Z,100806.45
2019-06-07T00:27:32.933Z,100806.53
2019-06-07T00:30:34.921Z,100804.95
2019-06-07T00:32:44.606Z,100802.53
2019-06-07T00:35:19.373Z,100803.43
2019-06-07T00:37:51.137Z,100803.92
2019-06-07T00:40:31.518Z,100805.69
2019-06-07T00:42:58.490Z,100799.62
2019-06-07T00:45:35.195Z,100802.15
2019-06-07T00:48:07.834Z,100797.87
2019-06-07T00:50:40.286Z,100803.34
2019-06-07T00:53:18.265Z,100800.67
2019-06-07T00:55:47.107Z,100797.47
2019-06-07T00:58:21.916Z,100789.12
2019-06-07T01:00:53.894Z,100784.84
2019-06-07T01:03:26.423Z,100792.81
2019-06-07T01:05:58.865Z,100790.15
2019-06-07T01:08:31.542Z,100778.91
2019-06-07T01:11:04.065Z,100776.33
2019-06-07T01:13:36.641Z,100774.08
2019-06-07T01:16:08.950Z,100784.18
2019-06-07T01:18:46.449Z,100779.20
2019-06-07T01:21:19.797Z,100780.53
2019-06-07T01:24:11.852Z,100790.36
2019-06-07T01:26:26.840Z,100792.58
2019-06-07T01:28:58.247Z,100801.95
2019-06-07T01:31:31.736Z,100802.92
2019-06-07T01:34:04.577Z,100807.48
2019-06-07T01:36:37.251Z,100812.53
2019-06-07T01:39:09.840Z,100814.25
2019-06-07T01:41:42.380Z,100815.78
2019-06-07T01:44:14.915Z,100816.95
2019-06-07T01:46:48.320Z,100815.72
2019-06-07T01:49:22.178Z,100819.72
2019-06-07T01:51:54.964Z,100813.52
2019-06-07T01:54:52.257Z,100822.20
2019-06-07T01:57:01.572Z,100822.48
2019-06-07T01:59:34.133Z,100818.61
2019-06-07T02:02:06.675Z,100823.91
2019-06-07T02:04:39.229Z,100830.03
2019-06-07T02:07:12.962Z,100836.34
2019-06-07T02:09:45.495Z,100835.61
2019-06-07T02:12:28.092Z,100837.56
2019-06-07T02:14:54.380Z,100836.98
2019-06-07T02:17:30.150Z,100830.89
2019-06-07T02:20:01.155Z,100825.84
2019-06-07T02:22:33.753Z,100827.77
2019-06-07T02:25:34.986Z,100820.71
2019-06-07T02:27:41.258Z,100811.47
2019-06-07T02:32:48.449Z,100807.11
2019-06-07T02:35:25.585Z,100799.97
2019-06-07T02:37:55.248Z,100797.92
2019-06-07T02:40:36.395Z,100798.94
2019-06-07T02:43:03.539Z,100792.50
2019-06-07T02:45:43.082Z,100798.86
2019-06-07T02:48:11.037Z,100805.84
2019-06-07T02:50:43.803Z,100801.60
2019-06-07T02:53:16.407Z,100804.14
2019-06-07T02:56:33.894Z,100797.55
2019-06-07T02:58:26.021Z,100786.41
2019-06-07T03:01:07.517Z,100783.80
2019-06-07T03:03:33.694Z,100792.41
2019-06-07T03:06:06.177Z,100789.15
2019-06-07T03:08:41.484Z,100789.98
2019-06-07T03:11:16.191Z,100785.41
2019-06-07T03:13:49.857Z,100779.84
2019-06-07T03:16:33.842Z,100771.34
2019-06-07T03:19:10.323Z,100771.34
2019-06-07T03:21:43.386Z,100762.68
2019-06-07T03:24:15.837Z,100753.55
2019-06-07T03:29:28.321Z,100752.11
2019-06-07T03:31:58.995Z,100756.94
2019-06-07T03:34:38.168Z,100754.88
2019-06-07T03:37:05.681Z,100756.88
2019-06-07T03:39:41.015Z,100763.31
2019-06-07T03:42:12.161Z,100762.73
2019-06-07T03:44:45.254Z,100761.88
2019-06-07T03:47:19.707Z,100759.20
2019-06-07T03:49:51.927Z,100752.74
2019-06-07T03:52:24.240Z,100754.22
2019-06-07T03:54:58.817Z,100752.75
2019-06-07T03:58:27.552Z,100755.80
2019-06-07T04:00:08.044Z,100752.22
2019-06-07T04:02:41.900Z,100763.04
2019-06-07T04:05:15.053Z,100756.06
2019-06-07T04:07:47.570Z,100752.31
2019-06-07T04:10:41.133Z,100750.98
2019-06-07T04:12:54.230Z,100746.49
2019-06-07T04:15:27.800Z,100752.55
2019-06-07T04:18:03.787Z,100750.57
2019-06-07T04:20:36.654Z,100748.13
2019-06-07T04:23:27.424Z,100741.20
2019-06-07T04:25:42.981Z,100736.36
2019-06-07T04:28:19.048Z,100743.08
2019-06-07T04:30:51.853Z,100748.19
2019-06-07T04:33:24.113Z,100749.80
2019-06-07T04:35:56.782Z,100750.59
2019-06-07T04:38:32.706Z,100756.48
2019-06-07T04:41:05.066Z,100753.11
2019-06-07T04:43:42.853Z,100759.34
2019-06-07T04:46:17.903Z,100766.85
2019-06-07T04:48:53.449Z,100758.12
2019-06-07T04:51:26.847Z,100762.60
2019-06-07T04:53:59.367Z,100753.86
2019-06-07T04:56:33.817Z,100754.48
2019-06-07T04:59:06.322Z,100749.92
2019-06-07T05:01:42.319Z,100755.11
2019-06-07T05:18:05.967Z,100747.06
2019-06-07T05:20:41.593Z,100743.45
2019-06-07T05:23:59.458Z,100747.38
2019-06-07T05:25:48.144Z,100749.30
2019-06-07T05:28:20.484Z,100749.97
2019-06-07T05:31:05.089Z,100748.45
2019-06-07T05:33:27.206Z,100755.48
2019-06-07T05:35:59.398Z,100752.52
2019-06-07T05:38:33.383Z,100752.98
2019-06-07T05:41:06.022Z,100765.92
2019-06-07T05:43:45.532Z,100765.92
2019-06-07T05:46:15.914Z,100754.22
2019-06-07T05:48:48.449Z,100755.16
2019-06-07T05:51:20.872Z,100761.82
2019-06-07T05:53:53.211Z,100752.88
2019-06-07T05:56:25.765Z,100761.41
2019-06-07T05:58:58.184Z,100761.25
2019-06-07T06:01:44.986Z,100753.91
2019-06-07T06:04:05.047Z,100763.30
2019-06-07T06:06:39.568Z,100772.39
2019-06-07T06:09:14.075Z,100770.27
2019-06-07T06:11:59.689Z,100768.84
2019-06-07T06:14:20.540Z,100766.48
2019-06-07T06:16:53.022Z,100761.83
2019-06-07T06:19:25.559Z,100773.75
2019-06-07T06:21:57.937Z,100779.45
2019-06-07T06:24:30.444Z,100785.96
2019-06-07T06:27:18.864Z,100779.94
2019-06-07T06:29:38.724Z,100788.95
2019-06-07T06:32:41.212Z,100767.25
2019-06-07T06:34:49.397Z,100767.64
2019-06-07T06:37:20.507Z,100778.97
2019-06-07T06:39:52.854Z,100777.44
2019-06-07T06:42:25.168Z,100782.39
2019-06-07T06:44:59.031Z,100779.84
2019-06-07T06:47:31.398Z,100791.86
2019-06-07T06:50:05.512Z,100793.65
2019-06-07T06:52:39.932Z,100777.11
2019-06-07T06:55:12.053Z,100777.77
2019-06-07T06:57:45.742Z,100794.58
2019-06-07T07:00:18.448Z,100790.91
2019-06-07T07:03:40.674Z,100789.44
2019-06-07T07:05:24.900Z,100790.31
2019-06-07T07:07:57.225Z,100800.51
2019-06-07T07:10:39.277Z,100804.61
2019-06-07T07:13:11.799Z,100796.28
2019-06-07T07:15:45.349Z,100800.13
2019-06-07T07:18:19.025Z,100797.34
2019-06-07T07:20:56.759Z,100792.55
2019-06-07T07:23:27.108Z,100797.09
2019-06-07T07:26:00.291Z,100807.45
2019-06-07T07:28:33.374Z,100801.12
2019-06-07T07:31:06.318Z,100799.28
2019-06-07T07:36:35.636Z,100786.20
2019-06-07T07:38:53.345Z,100792.29
2019-06-07T07:41:22.224Z,100771.07
2019-06-07T07:44:04.709Z,100768.92
2019-06-07T07:46:30.143Z,100766.52
2019-06-07T07:49:02.828Z,100764.18
2019-06-07T07:51:35.733Z,100779.81
2019-06-07T07:54:10.919Z,100771.23
2019-06-07T07:56:45.295Z,100767.97
2019-06-07T07:59:17.767Z,100761.86
2019-06-07T08:01:53.927Z,100769.92
2019-06-07T08:05:04.821Z,100757.95
2019-06-07T08:06:59.119Z,100748.08
2019-06-07T08:09:31.675Z,100763.28
2019-06-07T08:12:04.089Z,100756.63
2019-06-07T08:14:36.445Z,100772.19
2019-06-07T08:17:08.749Z,100764.63
2019-06-07T08:19:41.151Z,100780.53
2019-06-07T08:22:14.104Z,100776.37
2019-06-07T08:24:50.505Z,100783.04
2019-06-07T08:27:26.271Z,100777.01
2019-06-07T08:30:15.817Z,100782.84
2019-06-07T08:32:29.256Z,100775.58
2019-06-07T08:35:05.976Z,100784.84
2019-06-07T08:38:14.896Z,100761.50
2019-06-07T08:40:12.393Z,100752.16
2019-06-07T08:43:04.529Z,100736.33
2019-06-07T08:45:19.590Z,100753.11
2019-06-07T08:47:59.397Z,100738.66
2019-06-07T08:50:28.454Z,100747.06
2019-06-07T08:53:11.827Z,100747.12
2019-06-07T08:55:37.867Z,100745.87
2019-06-07T08:58:11.435Z,100735.28
2019-06-07T09:00:46.842Z,100731.07
2019-06-07T09:03:18.895Z,100737.17
2019-06-07T09:05:56.324Z,100726.53
2019-06-07T09:08:30.809Z,100742.50
2019-06-07T09:11:10.210Z,100748.84
2019-06-07T09:13:36.475Z,100754.77
2019-06-07T09:16:09.119Z,100752.92
2019-06-07T09:18:44.395Z,100752.61
2019-06-07T09:21:15.985Z,100750.48
2019-06-07T09:23:48.323Z,100757.48
2019-06-07T09:26:20.698Z,100741.86
2019-06-07T09:28:53.437Z,100769.27
2019-06-07T09:31:49.311Z,100752.16
2019-06-07T09:34:07.975Z,100758.81
2019-06-07T09:36:34.400Z,100759.33
2019-06-07T09:39:12.494Z,100758.81
2019-06-07T09:41:49.247Z,100758.46
2019-06-07T09:44:24.739Z,100759.40
2019-06-07T09:47:12.943Z,100760.62
2019-06-07T09:49:32.349Z,100770.23
2019-06-07T09:52:02.201Z,100766.14
2019-06-07T09:57:15.071Z,100766.56
2019-06-07T09:59:41.221Z,100769.31
2019-06-07T10:02:15.498Z,100753.51
2019-06-07T10:04:47.910Z,100759.28
2019-06-07T10:07:31.230Z,100761.67
2019-06-07T10:10:18.451Z,100755.87
2019-06-07T10:12:28.833Z,100750.45
2019-06-07T10:15:03.398Z,100749.76
2019-06-07T10:17:36.231Z,100767.12
2019-06-07T10:20:09.896Z,100769.83
2019-06-07T10:22:42.974Z,100766.75
2019-06-07T10:25:15.394Z,100752.11
2019-06-07T10:27:47.672Z,100756.22
2019-06-07T10:30:21.349Z,100768.95
2019-06-07T10:32:53.692Z,100767.05
2019-06-07T10:35:27.939Z,100756.25
2019-06-07T10:38:00.401Z,100752.21
2019-06-07T10:40:32.847Z,100747.45
2019-06-07T10:43:07.101Z,100755.45
2019-06-07T10:45:40.807Z,100753.86
2019-06-07T10:48:13.373Z,100747.39
2019-06-07T10:50:45.648Z,100741.77
2019-06-07T10:53:18.044Z,100731.31
2019-06-07T10:55:50.380Z,100744.98
2019-06-07T10:58:22.748Z,100735.53
2019-06-07T11:00:55.131Z,100736.98
2019-06-07T11:03:28.199Z,100749.17
2019-06-07T11:06:00.650Z,100737.15
2019-06-07T11:08:32.949Z,100734.02
2019-06-07T11:11:06.024Z,100746.88
2019-06-07T11:13:38.564Z,100749.80
2019-06-07T11:16:13.057Z,100749.03
2019-06-07T11:18:48.675Z,100754.07
2019-06-07T11:21:21.600Z,100744.18
2019-06-07T11:23:54.625Z,100749.13
2019-06-07T11:26:28.395Z,100752.73
2019-06-07T11:29:00.976Z,100752.85
2019-06-07T11:31:33.350Z,100746.01
2019-06-07T11:34:06.322Z,100745.91
2019-06-07T11:36:39.110Z,100744.93
2019-06-07T11:39:15.114Z,100741.49
2019-06-07T11:41:47.806Z,100736.28
2019-06-07T11:44:20.160Z,100736.03
2019-06-07T11:46:52.574Z,100723.96
2019-06-07T11:49:24.922Z,100725.64
2019-06-07T11:51:57.787Z,100729.70
2019-06-07T11:54:30.119Z,100723.73
2019-06-07T11:57:02.545Z,100733.11
2019-06-07T11:59:34.855Z,100736.73
2019-06-07T12:02:09.133Z,100720.72
2019-06-07T12:04:41.938Z,100724.70
2019-06-07T12:07:15.790Z,100716.09
2019-06-07T12:09:56.327Z,100720.83
2019-06-07T12:12:23.501Z,100720.62
2019-06-07T12:14:55.812Z,100711.63
2019-06-07T12:17:28.281Z,100708.59
2019-06-07T12:20:00.824Z,100712.02
2019-06-07T12:22:33.339Z,100702.87
2019-06-07T12:25:10.168Z,100703.88
2019-06-07T12:27:43.119Z,100691.92
2019-06-07T12:30:23.710Z,100684.11
2019-06-07T12:32:50.587Z,100681.39
2019-06-07T12:35:23.016Z,100682.10
2019-06-07T12:37:55.560Z,100685.55
2019-06-07T12:40:32.229Z,100673.64
2019-06-07T12:43:04.155Z,100679.37
2019-06-07T12:45:44.961Z,100677.77
2019-06-07T12:48:11.025Z,100676.58
2019-06-07T12:50:45.865Z,100674.31
2019-06-07T12:53:24.198Z,100666.86
2019-06-07T12:55:53.385Z,100658.36
2019-06-07T12:58:34.662Z,100653.06
2019-06-07T13:01:01.166Z,100655.89
2019-06-07T13:03:33.610Z,100642.19
2019-06-07T13:06:05.935Z,100632.95
2019-06-07T13:08:39.421Z,100639.94
2019-06-07T13:11:17.606Z,100634.98
2019-06-07T13:13:47.923Z,100628.38
2019-06-07T13:16:22.074Z,100629.31
2019-06-07T13:18:55.442Z,100622.92
2019-06-07T13:21:29.869Z,100625.41
2019-06-07T13:24:02.070Z,100625.95
2019-06-07T13:26:34.644Z,100628.39
2019-06-07T13:29:07.911Z,100630.77
2019-06-07T13:31:42.607Z,100628.18
2019-06-07T13:34:18.409Z,100629.97
2019-06-07T13:36:52.871Z,100637.27
2019-06-07T13:39:29.266Z,100634.97
2019-06-07T13:42:00.965Z,100638.45
2019-06-07T13:44:33.503Z,100650.55
2019-06-07T13:47:09.263Z,100648.52
2019-06-07T13:49:41.876Z,100655.92
2019-06-07T13:52:14.985Z,100652.16
2019-06-07T13:54:49.899Z,100648.83
2019-06-07T13:57:24.390Z,100642.35
2019-06-07T13:59:56.857Z,100640.91
2019-06-07T14:02:29.934Z,100643.20
2019-06-07T14:05:05.543Z,100645.55
2019-06-07T14:07:37.974Z,100650.11
2019-06-07T14:10:11.774Z,100652.09
2019-06-07T14:12:44.589Z,100644.08
2019-06-07T14:15:20.353Z,100633.47
2019-06-07T14:17:53.159Z,100621.72
2019-06-07T14:20:31.367Z,100607.87
2019-06-07T14:23:01.566Z,100606.81
2019-06-07T14:25:34.800Z,100607.57
2019-06-07T14:28:11.256Z,100603.05
2019-06-07T14:30:41.384Z,100618.98
2019-06-07T14:33:13.680Z,100619.00
2019-06-07T14:35:46.116Z,100632.78
2019-06-07T14:38:18.556Z,100637.53
2019-06-07T14:40:52.205Z,100650.30
2019-06-07T14:43:25.118Z,100677.90
2019-06-07T14:45:57.660Z,100669.38
2019-06-07T14:48:32.750Z,100667.76
2019-06-07T14:51:05.223Z,100672.24
2019-06-07T14:53:40.826Z,100672.66
2019-06-07T14:56:14.028Z,100667.20
2019-06-07T14:58:46.720Z,100657.73
2019-06-07T15:01:20.806Z,100662.88
2019-06-07T15:03:53.213Z,100656.31
2019-06-07T15:06:26.793Z,100652.52
2019-06-07T15:08:59.490Z,100644.77
2019-06-07T15:11:33.135Z,100650.09
2019-06-07T15:14:08.095Z,100648.75
2019-06-07T15:16:43.880Z,100643.59
2019-06-07T15:19:17.671Z,100649.58
2019-06-07T15:21:50.198Z,100661.03
2019-06-07T15:24:22.519Z,100660.20
2019-06-07T15:26:54.962Z,100656.02
2019-06-07T15:29:27.495Z,100659.98
2019-06-07T15:32:00.560Z,100659.04
2019-06-07T15:34:34.318Z,100659.64
2019-06-07T15:37:07.345Z,100658.85
2019-06-07T15:39:39.602Z,100659.57
2019-06-07T15:42:12.626Z,100657.27
2019-06-07T15:44:45.864Z,100652.77
2019-06-07T15:47:18.303Z,100655.67
2019-06-07T15:49:52.104Z,100651.30
2019-06-07T15:52:24.513Z,100648.00
2019-06-07T15:54:57.062Z,100648.84
2019-06-07T15:57:30.987Z,100650.07
2019-06-07T16:00:06.931Z,100647.92
2019-06-07T16:02:39.797Z,100640.93
2019-06-07T16:05:12.970Z,100639.63
2019-06-07T16:07:45.379Z,100636.36
2019-06-07T16:10:18.483Z,100622.77
2019-06-07T16:13:00.266Z,100625.31
2019-06-07T16:15:25.323Z,100627.06
2019-06-07T16:17:57.777Z,100627.13
2019-06-07T16:20:30.360Z,100637.63
2019-06-07T16:23:06.142Z,100642.06
2019-06-07T16:25:39.985Z,100648.33
2019-06-07T16:28:12.680Z,100644.77
2019-06-07T16:30:45.119Z,100645.63
2019-06-07T16:33:17.399Z,100651.67
2019-06-07T16:35:51.407Z,100654.73
2019-06-07T16:38:24.873Z,100650.94
2019-06-07T16:40:58.918Z,100652.61
2019-06-07T16:43:34.265Z,100651.33
2019-06-07T16:46:11.846Z,100651.05
2019-06-07T16:48:45.816Z,100654.20
2019-06-07T16:51:20.446Z,100660.08
2019-06-07T16:53:54.812Z,100669.72
2019-06-07T16:56:28.525Z,100664.80
2019-06-07T16:59:08.200Z,100664.28
2019-06-07T17:01:41.097Z,100666.56
2019-06-07T17:04:15.519Z,100669.85
2019-06-07T17:06:48.720Z,100671.28
2019-06-07T17:09:22.793Z,100673.33
2019-06-07T17:11:55.381Z,100669.47
2019-06-07T17:14:27.987Z,100673.06
2019-06-07T17:17:01.013Z,100667.50
2019-06-07T17:19:35.128Z,100666.91
2019-06-07T17:22:07.852Z,100669.95
2019-06-07T17:24:41.398Z,100671.35
2019-06-07T17:27:16.037Z,100677.67
2019-06-07T17:29:50.517Z,100684.46
2019-06-07T18:39:53.156Z,100741.09
2019-06-07T18:42:27.713Z,100738.17
2019-06-07T18:45:01.541Z,100742.36
2019-06-07T18:47:37.756Z,100741.16
2019-06-07T18:50:12.779Z,100747.89
2019-06-07T18:52:48.637Z,100749.23
2019-06-07T18:55:23.961Z,100750.12
2019-06-07T18:57:58.545Z,100743.75
2019-06-07T19:00:33.874Z,100747.64
2019-06-07T19:03:13.918Z,100750.37
2019-06-07T19:05:48.129Z,100749.35
2019-06-07T19:08:22.007Z,100756.14
2019-06-07T19:10:56.832Z,100752.31
2019-06-07T19:13:30.775Z,100754.16
2019-06-07T19:16:04.382Z,100766.27
2019-06-07T19:18:38.842Z,100755.03
2019-06-07T19:21:16.404Z,100756.20
2019-06-07T19:23:51.764Z,100761.09
2019-06-07T19:26:25.137Z,100760.11
2019-06-07T19:29:00.989Z,100758.94
2019-06-07T19:31:34.406Z,100758.94
2019-06-07T19:34:09.615Z,100769.19
2019-06-07T19:36:48.738Z,100774.36
2019-06-07T19:39:26.691Z,100782.42
2019-06-07T19:42:00.327Z,100783.42
2019-06-07T19:44:35.106Z,100779.34
2019-06-07T19:47:08.584Z,100772.94
2019-06-07T19:49:42.017Z,100779.95
2019-06-07T19:52:14.737Z,100783.41
2019-06-07T19:54:49.833Z,100781.84
2019-06-07T19:57:22.415Z,100783.60
2019-06-07T19:59:55.430Z,100786.78
2019-06-07T20:02:30.943Z,100795.47
2019-06-07T20:05:06.362Z,100793.41
2019-06-07T20:07:36.410Z,100796.42
2019-06-07T20:10:09.091Z,100791.34
2019-06-07T20:12:43.876Z,100794.97
2019-06-07T20:15:28.600Z,100799.94
2019-06-07T20:17:55.117Z,100799.05
2019-06-07T20:20:30.011Z,100797.72
2019-06-07T20:23:05.186Z,100798.27
2019-06-07T20:25:39.341Z,100788.56
2019-06-07T20:28:12.581Z,100789.95
2019-06-07T20:30:46.155Z,100793.91
2019-06-07T20:33:19.358Z,100791.23
2019-06-07T20:35:51.777Z,100789.78
2019-06-07T20:38:24.137Z,100787.48
2019-06-07T20:40:57.019Z,100787.48
2019-06-07T20:43:29.453Z,100792.18
2019-06-07T20:46:03.441Z,100794.36
2019-06-07T20:48:36.659Z,100789.62
2019-06-07T20:51:09.060Z,100787.38
2019-06-07T20:53:41.370Z,100787.88
2019-06-07T20:56:14.677Z,100785.37
2019-06-07T20:58:47.337Z,100784.19
2019-06-07T21:01:19.710Z,100780.11
2019-06-07T21:03:52.077Z,100780.37
2019-06-07T21:06:25.918Z,100778.97
2019-06-07T21:09:01.518Z,100781.62
2019-06-07T21:11:39.133Z,100785.31
2019-06-07T21:14:11.666Z,100778.72
2019-06-07T21:16:44.155Z,100781.89
2019-06-07T21:19:16.562Z,100780.11
2019-06-07T21:21:49.110Z,100780.50
2019-06-07T21:24:21.620Z,100786.41
2019-06-07T21:26:54.324Z,100787.25
2019-06-07T21:29:28.523Z,100784.28
2019-06-07T21:32:01.322Z,100786.27
2019-06-07T21:34:34.696Z,100781.35
2019-06-07T21:37:07.879Z,100781.67
2019-06-07T21:39:41.086Z,100785.34
2019-06-07T21:42:13.474Z,100783.77
2019-06-07T21:44:46.442Z,100795.33
2019-06-07T21:47:18.893Z,100792.08
2019-06-07T21:49:51.254Z,100793.39
2019-06-07T21:52:24.738Z,100795.98
2019-06-07T21:54:57.070Z,100799.50
2019-06-07T21:57:29.336Z,100799.31
2019-06-07T22:00:03.247Z,100800.72
2019-06-07T22:02:37.282Z,100798.31
2019-06-07T22:05:09.818Z,100799.97
2019-06-07T22:07:42.172Z,100803.42
2019-06-07T22:10:14.984Z,100799.06
2019-06-07T22:12:47.361Z,100798.91
2019-06-07T22:15:33.129Z,100798.91
2019-06-07T22:17:55.468Z,100798.28
2019-06-07T22:20:28.046Z,100797.53
2019-06-07T22:23:00.777Z,100798.47
2019-06-07T22:25:33.788Z,100795.20
2019-06-07T22:28:07.994Z,100792.58
2019-06-07T22:30:40.602Z,100794.25
2019-06-07T22:33:13.414Z,100790.23
2019-06-07T22:35:47.141Z,100790.20
2019-06-07T22:38:20.607Z,100786.13
2019-06-07T22:40:53.155Z,100794.50
2019-06-07T22:43:25.599Z,100784.52
2019-06-07T22:45:57.970Z,100782.02
2019-06-07T22:48:30.358Z,100781.18
2019-06-07T22:51:07.253Z,100787.46
2019-06-07T22:53:40.652Z,100776.22
2019-06-07T22:56:19.797Z,100775.31
2019-06-07T22:58:52.087Z,100780.33
2019-06-07T23:01:26.025Z,100778.80
2019-06-07T23:03:58.321Z,100775.55
2019-06-07T23:06:30.659Z,100780.80
2019-06-07T23:09:03.435Z,100774.48
2019-06-07T23:11:36.409Z,100778.88
2019-06-07T23:14:09.244Z,100777.70
2019-06-07T23:16:54.930Z,100777.50
2019-06-07T23:19:16.255Z,100779.73
2019-06-07T23:21:48.636Z,100777.82
2019-06-07T23:24:21.529Z,100785.69
2019-06-07T23:26:54.151Z,100790.42
2019-06-07T23:29:26.489Z,100792.98
2019-06-07T23:31:59.116Z,100791.99
2019-06-07T23:34:31.541Z,100788.75
2019-06-07T23:37:05.107Z,100793.70
2019-06-07T23:39:37.773Z,100786.03
2019-06-07T23:42:11.034Z,100791.92
2019-06-07T23:44:43.862Z,100796.08
2019-06-07T23:47:17.711Z,100801.42
2019-06-07T23:49:50.163Z,100799.81
2019-06-07T23:52:22.856Z,100793.08
2019-06-07T23:54:55.144Z,100791.69
2019-06-07T23:57:27.665Z,100786.56
